Time;durP1;ratioP1;P1;durP2;ratioP2;P2;SDS_P1;SDS_P2;PMS_P1;PMS_P2;Temp;Humidity;BMP_temperature;BMP_pressure;BME280_temperature;BME280_humidity;BME280_pressure;Samples;Min_cycle;Max_cycle;Signal;HPM_P1;HPM_P2
2022/08/16 00:02:01;;;;;;;10.90;9.52;;;22.20;96.80;;;;;;5022741;28;20504;-61
2022/08/16 00:04:27;;;;;;;13.85;10.73;;;22.20;96.90;;;;;;5024279;28;20473;-61
2022/08/16 00:06:54;;;;;;;12.10;9.73;;;22.20;97.20;;;;;;5040003;28;20042;-62
2022/08/16 00:09:20;;;;;;;11.43;9.40;;;22.20;97.40;;;;;;5025156;28;20050;-61
2022/08/16 00:11:47;;;;;;;17.38;11.35;;;22.20;97.50;;;;;;5024195;28;20072;-61
2022/08/16 00:14:17;;;;;;;15.38;11.30;;;22.20;97.90;;;;;;5023802;28;20076;-61
2022/08/16 00:16:43;;;;;;;14.00;9.95;;;22.10;98.20;;;;;;5025477;28;21284;-61
2022/08/16 00:19:10;;;;;;;12.45;10.00;;;22.20;98.30;;;;;;5024981;28;20065;-61
2022/08/16 00:21:36;;;;;;;14.60;12.13;;;22.20;98.40;;;;;;5025232;28;20042;-61
2022/08/16 00:24:02;;;;;;;15.18;12.20;;;22.20;99.00;;;;;;5025467;28;20048;-61
2022/08/16 00:26:28;;;;;;;17.92;13.38;;;22.10;99.60;;;;;;5039526;28;20080;-60
2022/08/16 00:28:53;;;;;;;15.40;13.00;;;22.10;99.90;;;;;;5023820;28;20079;-61
2022/08/16 00:31:19;;;;;;;17.05;14.02;;;22.10;99.90;;;;;;5025204;28;20061;-61
2022/08/16 00:33:45;;;;;;;15.63;13.80;;;22.10;99.90;;;;;;5025479;28;20100;-61
2022/08/16 00:36:11;;;;;;;15.73;13.50;;;22.00;99.90;;;;;;5023174;28;20041;-61
2022/08/16 00:38:36;;;;;;;14.65;12.75;;;22.00;99.90;;;;;;5024436;28;20042;-61
2022/08/16 00:41:03;;;;;;;20.05;13.80;;;22.00;99.90;;;;;;5024660;28;20056;-61
2022/08/16 00:43:33;;;;;;;17.52;14.10;;;22.00;99.90;;;;;;5023628;28;20045;-61
2022/08/16 00:46:11;;;;;;;15.52;13.18;;;22.00;99.90;;;;;;5026585;28;20085;-62
2022/08/16 00:48:39;;;;;;;13.13;11.23;;;21.90;99.90;;;;;;5024266;28;20038;-61
2022/08/16 00:51:06;;;;;;;12.70;11.35;;;21.90;99.90;;;;;;5020521;28;20092;-61
2022/08/16 00:53:32;;;;;;;17.08;13.90;;;21.90;99.90;;;;;;5024311;28;20045;-61
2022/08/16 00:56:04;;;;;;;14.07;10.80;;;21.90;99.90;;;;;;5025634;28;20546;-61
2022/08/16 00:58:32;;;;;;;16.10;13.00;;;21.90;99.90;;;;;;5022926;28;20519;-61
2022/08/16 01:00:58;;;;;;;14.07;12.05;;;21.90;99.90;;;;;;5020944;28;20060;-61
2022/08/16 01:03:27;;;;;;;17.77;13.70;;;21.90;99.90;;;;;;5019220;28;20053;-61
2022/08/16 01:05:54;;;;;;;17.45;14.55;;;21.90;99.90;;;;;;5022126;28;20048;-61
2022/08/16 01:08:21;;;;;;;15.98;13.15;;;21.90;99.90;;;;;;5021647;28;20408;-61
2022/08/16 01:10:48;;;;;;;15.40;12.95;;;21.90;99.90;;;;;;5021395;28;20123;-61
2022/08/16 01:13:18;;;;;;;17.38;13.13;;;21.90;99.90;;;;;;5023893;28;20516;-61
2022/08/16 01:16:01;;;;;;;17.70;13.20;;;21.90;99.90;;;;;;5022365;28;20562;-61
2022/08/16 01:18:38;;;;;;;17.73;13.52;;;21.90;99.90;;;;;;5021076;28;20054;-61
2022/08/16 01:21:17;;;;;;;17.50;13.68;;;21.90;99.90;;;;;;5020556;28;20531;-61
2022/08/16 01:24:16;;;;;;;14.07;12.32;;;21.80;99.90;;;;;;5021596;28;20049;-61
2022/08/16 01:26:44;;;;;;;15.05;13.23;;;21.80;99.90;;;;;;5020348;28;21334;-61
2022/08/16 01:29:15;;;;;;;15.27;13.27;;;21.80;99.90;;;;;;5021301;28;20451;-61
2022/08/16 01:31:41;;;;;;;16.85;13.90;;;21.80;99.90;;;;;;5022872;28;20067;-61
2022/08/16 01:34:07;;;;;;;14.57;13.05;;;21.80;99.90;;;;;;5020127;28;20379;-61
2022/08/16 01:36:34;;;;;;;15.90;12.35;;;21.80;99.90;;;;;;5020057;28;20080;-60
2022/08/16 01:39:09;;;;;;;20.60;13.57;;;21.80;99.90;;;;;;5020060;28;20041;-61
2022/08/16 01:41:35;;;;;;;15.27;12.55;;;21.70;99.90;;;;;;5021475;28;20068;-61
2022/08/16 01:44:02;;;;;;;18.85;12.77;;;21.70;99.90;;;;;;5021589;28;20139;-60
2022/08/16 01:46:32;;;;;;;18.55;12.93;;;21.70;99.90;;;;;;5021562;28;20046;-60
2022/08/16 01:49:03;;;;;;;18.02;12.23;;;21.70;99.90;;;;;;5020644;28;20038;-61
2022/08/16 01:51:29;;;;;;;14.93;12.45;;;21.70;99.90;;;;;;5018653;28;20061;-61
2022/08/16 01:53:55;;;;;;;13.50;11.65;;;21.70;99.90;;;;;;5019986;28;20061;-61
2022/08/16 01:56:22;;;;;;;17.58;12.45;;;21.70;99.90;;;;;;5020417;28;20041;-61
2022/08/16 01:58:48;;;;;;;18.27;13.68;;;21.70;99.90;;;;;;5021339;28;20034;-61
2022/08/16 02:01:14;;;;;;;14.45;11.43;;;21.70;99.90;;;;;;5020765;28;20049;-60
2022/08/16 02:03:40;;;;;;;21.70;12.90;;;21.70;99.90;;;;;;5020204;28;20705;-61
2022/08/16 02:06:06;;;;;;;17.17;12.15;;;21.60;99.90;;;;;;5020557;28;20030;-61
2022/08/16 02:08:33;;;;;;;15.98;12.23;;;21.60;99.90;;;;;;5019163;28;20083;-62
2022/08/16 02:11:01;;;;;;;17.30;11.77;;;21.60;99.90;;;;;;5037340;28;20080;-61
2022/08/16 02:13:27;;;;;;;14.20;11.85;;;21.60;99.90;;;;;;5021273;28;20049;-61
2022/08/16 02:15:53;;;;;;;15.93;12.95;;;21.50;99.90;;;;;;5019789;28;20060;-60
2022/08/16 02:18:18;;;;;;;18.30;13.18;;;21.50;99.90;;;;;;5020755;28;20041;-61
2022/08/16 02:20:49;;;;;;;16.40;12.00;;;21.50;99.90;;;;;;5021059;28;20091;-61
2022/08/16 02:23:17;;;;;;;18.55;12.93;;;21.50;99.90;;;;;;5021638;28;20049;-61
2022/08/16 02:25:43;;;;;;;16.48;12.85;;;21.50;99.90;;;;;;5002043;28;20409;-60
2022/08/16 02:28:09;;;;;;;18.05;12.80;;;21.50;99.90;;;;;;5019340;28;20060;-60
2022/08/16 02:30:35;;;;;;;15.75;12.82;;;21.50;99.90;;;;;;5019451;28;20041;-60
2022/08/16 02:33:02;;;;;;;14.95;12.90;;;21.50;99.90;;;;;;5018845;28;20046;-61
2022/08/16 02:35:28;;;;;;;18.15;13.18;;;21.50;99.90;;;;;;5020095;28;20041;-60
2022/08/16 02:37:54;;;;;;;16.65;14.02;;;21.50;99.90;;;;;;5036111;28;20128;-61
2022/08/16 02:40:22;;;;;;;17.10;13.80;;;21.50;99.90;;;;;;5022490;28;20461;-60
2022/08/16 02:42:49;;;;;;;18.02;13.88;;;21.50;99.90;;;;;;5020596;28;20100;-61
2022/08/16 02:45:16;;;;;;;16.92;13.75;;;21.50;99.90;;;;;;5021198;28;20372;-61
2022/08/16 02:47:42;;;;;;;19.65;14.77;;;21.50;99.90;;;;;;5001096;28;20045;-60
2022/08/16 02:50:08;;;;;;;16.15;14.40;;;21.50;99.90;;;;;;5020246;28;20136;-61
2022/08/16 02:52:35;;;;;;;19.05;14.70;;;21.50;99.90;;;;;;5020278;28;20053;-61
2022/08/16 02:55:01;;;;;;;18.95;14.75;;;21.40;99.90;;;;;;5020600;28;20755;-61
2022/08/16 02:57:26;;;;;;;21.10;13.80;;;21.40;99.90;;;;;;5019073;28;20125;-61
2022/08/16 02:59:52;;;;;;;16.25;14.05;;;21.40;99.90;;;;;;5020034;28;20042;-61
2022/08/16 03:02:18;;;;;;;19.65;14.32;;;21.40;99.90;;;;;;5019981;28;20049;-61
2022/08/16 03:04:44;;;;;;;18.48;15.00;;;21.40;99.90;;;;;;5021755;28;20049;-61
2022/08/16 03:07:10;;;;;;;19.05;15.38;;;21.40;99.90;;;;;;5025398;28;20080;-61
2022/08/16 03:09:37;;;;;;;21.77;15.48;;;21.40;99.90;;;;;;5024392;28;20467;-61
2022/08/16 03:12:04;;;;;;;19.15;15.00;;;21.30;99.90;;;;;;5025546;28;20508;-61
2022/08/16 03:14:31;;;;;;;20.67;16.05;;;21.40;99.90;;;;;;5022122;28;20563;-61
2022/08/16 03:16:58;;;;;;;19.40;15.75;;;21.30;99.90;;;;;;5024085;28;20038;-61
2022/08/16 03:19:24;;;;;;;17.95;15.55;;;21.30;99.90;;;;;;5026330;28;20077;-62
2022/08/16 03:21:50;;;;;;;21.58;15.98;;;21.30;99.90;;;;;;5023699;28;20407;-61
2022/08/16 03:24:17;;;;;;;21.52;15.70;;;21.20;99.90;;;;;;5025490;28;20056;-61
2022/08/16 03:26:43;;;;;;;19.95;15.98;;;21.20;99.90;;;;;;5007311;28;20388;-61
2022/08/16 03:29:10;;;;;;;22.83;16.73;;;21.20;99.90;;;;;;5023479;28;20546;-61
2022/08/16 03:31:36;;;;;;;19.45;15.80;;;21.20;99.90;;;;;;5021890;28;20046;-60
2022/08/16 03:34:02;;;;;;;19.77;16.02;;;21.10;99.90;;;;;;5022760;28;20045;-61
2022/08/16 03:36:28;;;;;;;20.80;16.00;;;21.10;99.90;;;;;;5022291;28;20046;-61
2022/08/16 03:38:54;;;;;;;20.88;15.93;;;21.10;99.90;;;;;;5024120;28;20498;-61
2022/08/16 03:41:22;;;;;;;19.08;16.25;;;21.10;99.90;;;;;;5023514;28;20164;-62
2022/08/16 03:43:48;;;;;;;18.52;15.30;;;21.10;99.90;;;;;;5023985;28;20530;-61
2022/08/16 03:46:14;;;;;;;18.88;16.80;;;21.00;99.90;;;;;;5024592;28;20076;-61
2022/08/16 03:48:40;;;;;;;20.10;16.60;;;21.00;99.90;;;;;;5025063;28;20476;-59
2022/08/16 03:51:09;;;;;;;21.35;15.73;;;20.90;99.90;;;;;;5021072;28;20583;-61
2022/08/16 03:53:36;;;;;;;21.38;15.00;;;20.90;99.90;;;;;;5005468;28;20571;-61
2022/08/16 03:56:03;;;;;;;16.70;14.85;;;20.90;99.90;;;;;;5021544;28;20042;-61
2022/08/16 03:58:29;;;;;;;17.08;15.38;;;20.80;99.90;;;;;;5023538;28;20052;-61
2022/08/16 04:00:55;;;;;;;19.30;16.50;;;20.80;99.90;;;;;;5022174;28;20484;-61
2022/08/16 04:03:21;;;;;;;21.38;17.38;;;20.70;99.90;;;;;;5020277;28;20124;-62
2022/08/16 04:05:49;;;;;;;26.15;16.48;;;20.70;99.90;;;;;;5023324;28;20037;-61
2022/08/16 04:08:18;;;;;;;17.38;15.52;;;20.70;99.90;;;;;;5038822;28;20053;-61
2022/08/16 04:10:44;;;;;;;19.02;15.60;;;20.70;99.90;;;;;;5022355;28;20124;-61
2022/08/16 04:13:10;;;;;;;20.45;15.73;;;20.60;99.90;;;;;;5022814;28;20377;-61
2022/08/16 04:15:37;;;;;;;25.17;15.82;;;20.60;99.90;;;;;;5022433;28;20051;-61
2022/08/16 04:18:04;;;;;;;25.67;16.65;;;20.50;99.90;;;;;;5021899;28;20076;-61
2022/08/16 04:20:30;;;;;;;18.60;15.43;;;20.50;99.90;;;;;;5022815;28;20198;-60
2022/08/16 04:22:57;;;;;;;19.02;17.13;;;20.50;99.90;;;;;;5022413;28;20080;-61
2022/08/16 04:25:23;;;;;;;19.30;15.85;;;20.50;99.90;;;;;;5035590;28;20052;-61
2022/08/16 04:27:50;;;;;;;20.85;17.58;;;20.40;99.90;;;;;;5021741;28;20045;-60
2022/08/16 04:30:18;;;;;;;18.08;16.17;;;20.40;99.90;;;;;;5021197;28;20048;-61
2022/08/16 04:32:45;;;;;;;21.83;15.88;;;20.40;99.90;;;;;;5022613;28;20049;-61
2022/08/16 04:35:15;;;;;;;21.92;17.15;;;20.30;99.90;;;;;;5022841;28;20041;-60
2022/08/16 04:37:45;;;;;;;19.00;17.08;;;20.30;99.90;;;;;;5022960;28;20088;-61
2022/08/16 04:40:11;;;;;;;22.77;17.45;;;20.30;99.90;;;;;;5022923;28;20107;-61
2022/08/16 04:42:40;;;;;;;21.20;17.35;;;20.30;99.90;;;;;;5019537;28;20046;-61
2022/08/16 04:45:09;;;;;;;20.73;17.00;;;20.30;99.90;;;;;;5021317;28;20041;-61
2022/08/16 04:47:36;;;;;;;22.55;16.92;;;20.30;99.90;;;;;;5022462;28;20060;-61
2022/08/16 04:50:25;;;;;;;25.08;16.50;;;20.20;99.90;;;;;;5021331;28;20061;-61
2022/08/16 04:52:52;;;;;;;21.23;16.30;;;20.20;99.90;;;;;;5022429;28;20060;-60
2022/08/16 04:55:24;;;;;;;21.95;16.88;;;20.20;99.90;;;;;;5022203;28;20126;-61
2022/08/16 04:57:52;;;;;;;21.73;17.40;;;20.20;99.90;;;;;;5022102;28;20037;-61
2022/08/16 05:00:25;;;;;;;19.67;16.73;;;20.10;99.90;;;;;;5020629;28;20050;-61
2022/08/16 05:02:53;;;;;;;24.17;17.80;;;20.10;99.90;;;;;;5035857;28;21633;-61
2022/08/16 05:05:20;;;;;;;22.75;17.55;;;20.20;99.90;;;;;;5005446;28;20052;-61
2022/08/16 05:07:46;;;;;;;25.48;17.48;;;20.20;99.90;;;;;;5038261;28;20046;-61
2022/08/16 05:10:13;;;;;;;22.30;17.13;;;20.20;99.90;;;;;;5019834;28;20120;-61
2022/08/16 05:12:38;;;;;;;22.70;17.48;;;20.20;99.90;;;;;;5020477;28;20123;-61
2022/08/16 05:15:05;;;;;;;22.13;17.83;;;20.20;99.90;;;;;;5021552;28;20048;-61
2022/08/16 05:17:31;;;;;;;20.95;16.33;;;20.20;99.90;;;;;;5022656;28;20399;-61
2022/08/16 05:19:57;;;;;;;21.05;16.90;;;20.20;99.90;;;;;;5021204;28;20052;-61
2022/08/16 05:22:23;;;;;;;19.55;15.77;;;20.20;99.90;;;;;;5021747;28;20517;-61
2022/08/16 05:24:49;;;;;;;21.25;17.27;;;20.20;99.90;;;;;;5020154;28;20053;-60
2022/08/16 05:27:15;;;;;;;21.75;16.38;;;20.20;99.90;;;;;;5020778;28;20645;-61
2022/08/16 05:29:42;;;;;;;22.20;16.85;;;20.20;99.90;;;;;;5021809;28;20129;-62
2022/08/16 05:32:08;;;;;;;21.38;16.95;;;20.20;99.90;;;;;;5020793;28;20127;-61
2022/08/16 05:34:35;;;;;;;18.80;16.80;;;20.20;99.90;;;;;;5019954;28;20084;-61
2022/08/16 05:37:00;;;;;;;18.83;16.33;;;20.20;99.90;;;;;;5025381;28;20084;-61
2022/08/16 05:39:27;;;;;;;21.30;16.52;;;20.20;99.90;;;;;;5003134;28;20121;-61
2022/08/16 05:41:53;;;;;;;21.90;16.98;;;20.20;99.90;;;;;;5018983;28;20045;-61
2022/08/16 05:44:22;;;;;;;20.00;16.48;;;20.20;99.90;;;;;;5021157;28;20045;-61
2022/08/16 05:46:53;;;;;;;19.38;17.10;;;20.20;99.90;;;;;;5007340;28;20037;-61
2022/08/16 05:49:19;;;;;;;21.00;17.50;;;20.20;99.90;;;;;;5018431;28;20104;-61
2022/08/16 05:51:46;;;;;;;19.58;17.42;;;20.20;99.90;;;;;;5020478;28;20049;-61
2022/08/16 05:54:16;;;;;;;22.98;17.35;;;20.20;99.90;;;;;;5014953;28;20037;-61
2022/08/16 05:56:44;;;;;;;22.45;16.90;;;20.30;99.90;;;;;;5019676;28;20565;-59
2022/08/16 05:59:12;;;;;;;21.50;16.90;;;20.30;99.90;;;;;;5019891;28;20053;-61
2022/08/16 06:01:39;;;;;;;19.13;16.80;;;20.30;99.90;;;;;;5019307;28;20547;-60
2022/08/16 06:04:08;;;;;;;22.05;16.95;;;20.30;99.90;;;;;;5019877;28;20092;-61
2022/08/16 06:06:34;;;;;;;19.33;14.98;;;20.40;99.90;;;;;;5021791;28;20049;-61
2022/08/16 06:09:00;;;;;;;20.27;17.05;;;20.40;99.90;;;;;;5021258;28;20044;-61
2022/08/16 06:11:26;;;;;;;20.35;16.33;;;20.40;99.90;;;;;;5021597;28;20188;-61
2022/08/16 06:13:51;;;;;;;21.90;16.70;;;20.40;99.90;;;;;;5021893;28;20122;-61
2022/08/16 06:16:17;;;;;;;20.33;16.30;;;20.40;99.90;;;;;;5019833;28;20120;-61
2022/08/16 06:18:43;;;;;;;19.55;16.13;;;20.50;99.90;;;;;;5019633;28;20064;-61
2022/08/16 06:21:11;;;;;;;23.00;16.60;;;20.50;99.90;;;;;;5021197;28;20133;-61
2022/08/16 06:23:37;;;;;;;21.52;16.63;;;20.60;99.90;;;;;;5019716;28;20088;-60
2022/08/16 06:26:04;;;;;;;21.30;16.85;;;20.60;99.90;;;;;;5020146;28;20073;-61
2022/08/16 06:28:30;;;;;;;20.17;16.58;;;20.60;99.90;;;;;;5019585;28;20045;-61
2022/08/16 06:30:56;;;;;;;19.88;16.23;;;20.70;99.90;;;;;;5019591;28;20470;-60
2022/08/16 06:33:22;;;;;;;17.38;15.57;;;20.80;99.90;;;;;;5034201;28;20095;-61
2022/08/16 06:35:52;;;;;;;22.00;16.50;;;20.80;99.90;;;;;;5019539;28;20049;-61
2022/08/16 06:38:18;;;;;;;18.50;16.38;;;20.90;99.90;;;;;;5021335;28;20127;-62
2022/08/16 06:40:44;;;;;;;23.58;16.08;;;20.90;99.90;;;;;;5003233;28;20488;-61
2022/08/16 06:43:09;;;;;;;23.05;16.50;;;21.00;99.90;;;;;;5019251;28;20060;-61
2022/08/16 06:45:41;;;;;;;24.42;16.50;;;21.00;99.90;;;;;;5019857;28;20099;-61
2022/08/16 06:48:07;;;;;;;25.77;15.88;;;21.10;99.90;;;;;;5020168;28;20391;-61
2022/08/16 06:50:34;;;;;;;21.95;16.67;;;21.20;99.90;;;;;;5019387;28;20061;-61
2022/08/16 06:53:00;;;;;;;18.05;16.02;;;21.20;99.90;;;;;;5021199;28;20046;-60
2022/08/16 06:55:28;;;;;;;18.70;16.13;;;21.20;99.90;;;;;;5019809;28;20054;-61
2022/08/16 06:57:54;;;;;;;21.50;17.02;;;21.30;99.90;;;;;;5017004;28;20091;-61
2022/08/16 07:00:21;;;;;;;21.63;17.23;;;21.40;99.90;;;;;;5020821;28;20045;-61
2022/08/16 07:02:47;;;;;;;20.85;17.05;;;21.50;99.90;;;;;;5017297;28;20037;-61
2022/08/16 07:05:15;;;;;;;21.13;17.27;;;21.50;99.90;;;;;;5020948;28;20385;-61
2022/08/16 07:07:44;;;;;;;19.83;16.85;;;21.60;99.90;;;;;;5020806;28;20049;-61
2022/08/16 07:10:10;;;;;;;22.08;17.77;;;21.70;99.90;;;;;;5019842;28;20147;-61
2022/08/16 07:12:36;;;;;;;22.63;17.75;;;21.80;99.90;;;;;;5020051;28;20041;-61
2022/08/16 07:15:04;;;;;;;23.98;17.90;;;21.90;99.90;;;;;;5020378;28;20496;-61
2022/08/16 07:17:31;;;;;;;22.25;17.92;;;21.90;99.90;;;;;;5020855;28;20049;-61
2022/08/16 07:19:58;;;;;;;24.65;17.67;;;22.00;99.90;;;;;;5035403;28;20056;-61
2022/08/16 07:22:25;;;;;;;26.75;17.52;;;22.10;99.90;;;;;;5020355;28;20041;-61
2022/08/16 07:24:51;;;;;;;23.02;17.35;;;22.20;99.90;;;;;;5019565;28;20929;-61
2022/08/16 07:27:17;;;;;;;22.15;17.02;;;22.20;99.90;;;;;;5018787;28;20065;-61
2022/08/16 07:29:43;;;;;;;20.73;15.73;;;22.30;99.90;;;;;;5019093;28;20495;-62
2022/08/16 07:32:09;;;;;;;22.02;16.27;;;22.50;99.90;;;;;;5019099;28;20045;-61
2022/08/16 07:34:35;;;;;;;22.05;15.55;;;22.50;99.90;;;;;;5002191;28;20357;-62
2022/08/16 07:37:09;;;;;;;20.83;15.48;;;22.60;99.60;;;;;;5020623;28;20526;-61
2022/08/16 07:39:36;;;;;;;19.98;15.63;;;22.70;99.40;;;;;;5021045;28;20065;-61
2022/08/16 07:42:02;;;;;;;21.15;16.00;;;22.80;98.90;;;;;;5019663;28;20526;-62
2022/08/16 07:44:28;;;;;;;19.60;15.13;;;22.90;98.90;;;;;;5020533;28;20061;-62
2022/08/16 07:46:55;;;;;;;20.13;15.98;;;23.00;98.70;;;;;;5020924;28;20407;-61
2022/08/16 07:49:21;;;;;;;22.63;15.77;;;23.10;98.50;;;;;;5017040;28;20112;-61
2022/08/16 07:51:47;;;;;;;18.35;15.15;;;23.20;98.20;;;;;;5023237;28;20061;-61
2022/08/16 07:54:13;;;;;;;16.92;14.35;;;23.30;97.90;;;;;;5023763;28;20042;-60
2022/08/16 07:56:39;;;;;;;20.02;14.00;;;23.40;97.50;;;;;;5022136;28;20510;-61
2022/08/16 07:59:05;;;;;;;17.20;13.40;;;23.40;96.90;;;;;;5022825;28;20072;-61
2022/08/16 08:01:32;;;;;;;15.85;12.98;;;23.50;96.70;;;;;;5022954;28;20106;-60
2022/08/16 08:03:58;;;;;;;15.43;12.48;;;23.60;96.70;;;;;;5022618;28;20056;-61
2022/08/16 08:06:30;;;;;;;17.10;13.63;;;23.70;96.50;;;;;;5021273;28;20132;-62
2022/08/16 08:08:56;;;;;;;22.23;13.70;;;23.80;96.20;;;;;;5023028;28;20095;-62
2022/08/16 08:11:23;;;;;;;18.63;12.90;;;23.90;95.90;;;;;;5022695;28;20034;-62
2022/08/16 08:13:51;;;;;;;15.18;12.93;;;24.00;95.50;;;;;;5022755;28;20053;-62
2022/08/16 08:16:20;;;;;;;18.48;14.27;;;24.10;95.20;;;;;;5021388;28;20052;-62
2022/08/16 08:18:48;;;;;;;18.02;13.02;;;24.10;95.00;;;;;;5023121;28;20045;-61
2022/08/16 08:21:18;;;;;;;20.27;13.88;;;24.20;95.00;;;;;;5020887;28;20068;-62
2022/08/16 08:23:45;;;;;;;18.50;13.73;;;24.30;94.70;;;;;;5020916;28;20055;-61
2022/08/16 08:26:11;;;;;;;18.13;13.35;;;24.40;94.40;;;;;;5036582;28;20056;-62
2022/08/16 08:28:37;;;;;;;16.80;13.68;;;24.50;94.20;;;;;;5023423;28;20053;-62
2022/08/16 08:31:04;;;;;;;16.77;12.95;;;24.50;94.00;;;;;;5021705;28;20071;-62
2022/08/16 08:33:31;;;;;;;18.83;12.40;;;24.60;93.80;;;;;;5022368;28;20041;-61
2022/08/16 08:35:58;;;;;;;15.20;12.65;;;24.70;93.60;;;;;;5021475;28;20501;-61
2022/08/16 08:38:24;;;;;;;17.77;13.52;;;24.80;93.30;;;;;;5022928;28;20053;-62
2022/08/16 08:40:50;;;;;;;17.38;13.48;;;24.90;93.10;;;;;;5021792;28;20386;-61
2022/08/16 08:43:16;;;;;;;14.13;12.25;;;25.00;93.00;;;;;;5021981;28;20467;-62
2022/08/16 08:45:42;;;;;;;17.75;12.00;;;25.10;92.80;;;;;;5038263;28;20041;-61
2022/08/16 08:48:08;;;;;;;16.17;12.45;;;25.30;93.10;;;;;;5022894;28;20045;-62
2022/08/16 08:50:35;;;;;;;13.60;11.73;;;25.40;92.40;;;;;;5021267;28;20065;-62
2022/08/16 08:53:01;;;;;;;14.73;12.20;;;25.50;92.10;;;;;;5023217;28;20052;-61
2022/08/16 08:55:27;;;;;;;15.40;12.02;;;25.60;92.20;;;;;;5024996;28;20500;-62
2022/08/16 08:57:53;;;;;;;12.30;10.88;;;25.80;91.90;;;;;;5020241;28;20115;-62
2022/08/16 09:00:22;;;;;;;13.32;10.75;;;25.90;91.60;;;;;;5023115;28;20492;-61
2022/08/16 09:02:48;;;;;;;14.48;10.75;;;26.00;91.10;;;;;;5021137;28;20172;-61
2022/08/16 09:05:16;;;;;;;13.95;10.70;;;26.10;90.60;;;;;;5022090;28;20046;-62
2022/08/16 09:07:43;;;;;;;15.07;10.70;;;26.20;90.10;;;;;;5021362;28;20052;-62
2022/08/16 09:10:09;;;;;;;14.40;9.82;;;26.30;90.00;;;;;;5022726;28;20050;-62
2022/08/16 09:12:35;;;;;;;14.65;8.52;;;26.30;88.70;;;;;;5022233;28;20041;-61
2022/08/16 09:15:01;;;;;;;10.68;7.95;;;26.40;88.90;;;;;;5035600;28;20108;-62
2022/08/16 09:17:27;;;;;;;11.63;6.43;;;26.50;88.60;;;;;;5021961;28;20045;-62
2022/08/16 09:19:54;;;;;;;8.65;6.03;;;26.60;86.00;;;;;;5022223;28;20042;-62
2022/08/16 09:22:26;;;;;;;10.10;7.97;;;26.70;85.20;;;;;;5019670;28;20075;-62
2022/08/16 09:24:52;;;;;;;16.65;7.78;;;26.70;85.00;;;;;;5020135;28;20050;-62
2022/08/16 09:27:18;;;;;;;10.98;7.10;;;26.90;84.60;;;;;;5021559;28;20534;-62
2022/08/16 09:29:44;;;;;;;11.32;8.68;;;27.00;84.30;;;;;;5022275;28;20063;-61
2022/08/16 09:32:10;;;;;;;16.23;8.60;;;27.10;83.30;;;;;;5004795;28;20495;-62
2022/08/16 09:34:36;;;;;;;13.15;7.68;;;27.20;83.00;;;;;;5018545;28;20045;-62
2022/08/16 09:37:02;;;;;;;9.15;8.13;;;27.30;83.40;;;;;;5022002;28;20044;-62
2022/08/16 09:39:28;;;;;;;13.95;9.60;;;27.40;82.90;;;;;;5037852;28;20102;-61
2022/08/16 09:41:55;;;;;;;13.00;9.70;;;27.50;82.00;;;;;;5022120;28;20045;-62
2022/08/16 09:44:23;;;;;;;12.23;8.55;;;27.50;81.10;;;;;;5038032;28;20056;-62
2022/08/16 09:46:49;;;;;;;11.43;8.85;;;27.70;80.20;;;;;;5020483;28;20064;-63
2022/08/16 09:49:16;;;;;;;10.57;8.73;;;27.70;80.40;;;;;;5035663;28;20045;-62
2022/08/16 09:51:42;;;;;;;14.57;9.30;;;27.80;80.70;;;;;;5019844;28;20148;-61
2022/08/16 09:54:09;;;;;;;12.43;9.20;;;28.00;80.20;;;;;;5022033;28;20488;-62
2022/08/16 09:56:36;;;;;;;11.25;8.60;;;28.00;79.20;;;;;;5021217;28;20076;-62
2022/08/16 09:59:07;;;;;;;14.63;10.15;;;28.10;80.20;;;;;;5021391;28;20045;-62
2022/08/16 10:01:35;;;;;;;13.35;9.73;;;28.20;78.50;;;;;;5019636;28;20049;-61
2022/08/16 10:04:01;;;;;;;14.70;9.90;;;28.30;78.30;;;;;;5019246;28;20052;-61
2022/08/16 10:06:28;;;;;;;9.95;8.68;;;28.40;77.90;;;;;;5018578;28;20045;-62
2022/08/16 10:08:53;;;;;;;16.75;9.10;;;28.50;78.60;;;;;;5020708;28;20060;-62
2022/08/16 10:14:04;;;;;;;12.38;9.68;;;28.70;77.00;;;;;;5017732;28;20038;-62
2022/08/16 10:16:30;;;;;;;11.23;8.80;;;28.80;76.50;;;;;;5021883;28;20042;-62
2022/08/16 10:18:56;;;;;;;12.65;8.77;;;28.90;76.00;;;;;;5004053;28;20339;-62
2022/08/16 10:21:23;;;;;;;23.23;8.38;;;29.00;75.00;;;;;;5019939;28;20041;-61
2022/08/16 10:23:51;;;;;;;15.20;10.23;;;29.00;74.90;;;;;;5021471;28;20088;-62
2022/08/16 10:26:17;;;;;;;18.60;10.20;;;29.10;74.10;;;;;;5019309;28;20053;-62
2022/08/16 10:28:43;;;;;;;14.18;9.25;;;29.10;73.80;;;;;;5020982;28;20049;-62
2022/08/16 10:31:10;;;;;;;13.10;9.02;;;29.20;73.70;;;;;;5004014;28;20056;-62
2022/08/16 10:33:36;;;;;;;12.88;8.20;;;29.20;73.80;;;;;;5019158;28;20067;-62
2022/08/16 10:36:05;;;;;;;17.60;8.02;;;29.20;73.30;;;;;;5020645;28;20045;-62
2022/08/16 10:38:34;;;;;;;12.80;8.48;;;29.40;73.70;;;;;;5034785;28;20038;-62
2022/08/16 10:41:00;;;;;;;9.23;7.80;;;29.60;73.10;;;;;;5022085;28;20053;-62
2022/08/16 10:43:26;;;;;;;12.40;7.63;;;29.70;72.30;;;;;;5019587;28;20045;-62
2022/08/16 10:45:52;;;;;;;8.93;7.38;;;29.80;71.70;;;;;;5020549;28;20124;-62
2022/08/16 10:48:18;;;;;;;14.35;7.35;;;29.90;70.90;;;;;;5020948;28;20063;-62
2022/08/16 10:50:44;;;;;;;11.40;7.05;;;30.00;70.60;;;;;;5019557;28;20629;-62
2022/08/16 10:53:10;;;;;;;11.75;7.75;;;30.10;70.20;;;;;;5020509;28;20041;-62
2022/08/16 10:55:38;;;;;;;8.15;6.93;;;30.10;69.30;;;;;;5018347;28;20360;-62
2022/08/16 10:58:07;;;;;;;11.60;7.07;;;30.30;68.80;;;;;;5021110;28;20041;-62
2022/08/16 11:00:34;;;;;;;8.48;6.60;;;30.40;68.30;;;;;;5020380;28;20045;-62
2022/08/16 11:03:02;;;;;;;8.43;6.53;;;30.50;68.50;;;;;;5021048;28;20554;-62
2022/08/16 11:05:31;;;;;;;13.50;7.03;;;30.70;69.60;;;;;;5019987;28;20049;-62
2022/08/16 11:07:57;;;;;;;11.52;7.07;;;30.90;68.50;;;;;;5034916;28;20113;-61
2022/08/16 11:10:30;;;;;;;8.25;6.18;;;31.00;67.60;;;;;;5020024;28;20037;-62
2022/08/16 11:12:56;;;;;;;9.75;6.07;;;31.10;67.10;;;;;;5018228;28;20049;-62
2022/08/16 11:15:22;;;;;;;10.45;6.72;;;31.20;67.10;;;;;;5020056;28;20488;-62
2022/08/16 11:17:50;;;;;;;7.97;5.90;;;31.30;66.50;;;;;;5020192;28;20045;-62
2022/08/16 11:20:16;;;;;;;8.70;6.80;;;31.30;66.70;;;;;;5021048;28;20048;-61
2022/08/16 11:22:43;;;;;;;7.03;6.32;;;31.50;66.10;;;;;;5019652;28;20057;-61
2022/08/16 11:25:10;;;;;;;6.78;6.07;;;31.50;65.50;;;;;;5019873;28;20049;-62
2022/08/16 11:27:37;;;;;;;13.15;6.22;;;31.50;64.80;;;;;;5024530;28;20080;-61
2022/08/16 11:30:04;;;;;;;11.93;6.60;;;31.50;64.50;;;;;;5023973;28;20041;-62
2022/08/16 11:32:30;;;;;;;9.38;6.38;;;31.60;64.30;;;;;;5022868;28;20046;-62
2022/08/16 11:34:56;;;;;;;12.07;5.85;;;31.60;64.70;;;;;;5022382;28;20115;-61
2022/08/16 11:37:23;;;;;;;8.32;5.57;;;31.80;64.90;;;;;;5025248;28;20160;-61
2022/08/16 11:39:49;;;;;;;10.55;6.35;;;31.90;64.10;;;;;;5022669;28;20071;-61
2022/08/16 11:42:14;;;;;;;11.52;6.30;;;32.20;63.70;;;;;;5026417;28;20049;-61
2022/08/16 11:44:40;;;;;;;8.77;5.85;;;32.30;63.30;;;;;;4990633;28;20458;-61
2022/08/16 11:47:06;;;;;;;13.90;6.45;;;32.30;63.20;;;;;;5022083;28;20049;-61
2022/08/16 11:49:33;;;;;;;13.70;6.40;;;32.30;62.80;;;;;;5022368;28;20546;-61
2022/08/16 11:52:00;;;;;;;7.70;6.00;;;32.30;62.70;;;;;;5038360;28;20084;-61
2022/08/16 11:54:26;;;;;;;6.72;5.60;;;32.20;61.70;;;;;;5022596;28;20057;-60
2022/08/16 11:56:52;;;;;;;10.52;5.55;;;32.10;61.10;;;;;;5022898;28;20084;-61
2022/08/16 11:59:18;;;;;;;10.90;5.78;;;31.80;61.20;;;;;;5023965;28;20049;-60
2022/08/16 12:01:44;;;;;;;10.32;6.05;;;31.70;62.00;;;;;;5023838;28;20041;-61
2022/08/16 12:04:10;;;;;;;11.88;5.90;;;31.60;62.00;;;;;;5020414;28;20056;-61
2022/08/16 12:06:36;;;;;;;8.23;6.03;;;31.70;62.40;;;;;;5023082;28;20125;-61
2022/08/16 12:09:03;;;;;;;9.98;5.68;;;31.80;61.70;;;;;;5023693;28;20049;-61
2022/08/16 12:11:31;;;;;;;16.92;5.97;;;32.00;62.00;;;;;;5023997;28;20622;-61
2022/08/16 12:13:59;;;;;;;10.77;6.03;;;32.10;60.50;;;;;;5021182;28;20045;-61
2022/08/16 12:16:25;;;;;;;7.50;4.95;;;32.20;59.70;;;;;;5023126;28;20476;-61
2022/08/16 12:18:51;;;;;;;8.32;5.18;;;32.20;59.90;;;;;;5022706;28;20079;-61
2022/08/16 12:21:17;;;;;;;10.68;5.80;;;32.20;59.70;;;;;;5022307;28;20050;-61
2022/08/16 12:23:43;;;;;;;11.23;5.50;;;32.00;59.60;;;;;;5022791;28;20052;-62
2022/08/16 12:26:09;;;;;;;7.90;5.07;;;32.00;59.40;;;;;;5023247;28;20412;-61
2022/08/16 12:28:35;;;;;;;11.55;4.70;;;31.90;58.20;;;;;;5005707;28;20056;-61
2022/08/16 12:31:01;;;;;;;7.97;4.95;;;31.90;58.40;;;;;;5021920;28;20045;-61
2022/08/16 12:33:26;;;;;;;12.55;5.18;;;31.80;58.50;;;;;;5038686;28;20045;-61